Terminal Aerodrome Forecast
Issued by NWS

Home | Current Version | Previous Version | Text Only | Print | Product List | Glossary On
Versions: 1 2 3 4 5 6 7 8 9 10 11 12 13 14 15 16 17
116
FTUS43 KEAX 262337
TAFMKC
TAF
KMKC 262337Z 2700/2724 04015G25KT 5SM -TSRA BR BKN040CB
      TEMPO 2700/2701 VRB19G29KT 4SM TSRA BR BKN035CB
     FM270800 15009KT P6SM VCTS BKN060CB
     FM271100 16010KT P6SM OVC040
      TEMPO 2711/2715 OVC020
     FM271500 17012KT P6SM BKN035=

USA.gov is the U.S. government's official web portal to all federal, state and local government web resources and services.